createdAt,value
2022-11-13T00:01:07.483Z,17.62
2022-11-13T00:03:34.322Z,17.59
2022-11-13T00:06:02.435Z,17.58
2022-11-13T00:08:29.959Z,17.50
2022-11-13T00:11:09.741Z,17.53
2022-11-13T00:13:36.651Z,17.52
2022-11-13T00:16:07.032Z,17.51
2022-11-13T00:18:37.412Z,17.49
2022-11-13T00:21:19.754Z,17.47
2022-11-13T00:23:47.007Z,17.44
2022-11-13T00:26:19.461Z,17.44
2022-11-13T00:28:46.564Z,17.43
2022-11-13T00:31:15.504Z,17.41
2022-11-13T00:36:29.646Z,17.38
2022-11-13T00:38:56.674Z,17.36
2022-11-13T00:41:24.579Z,17.36
2022-11-13T00:43:51.779Z,17.32
2022-11-13T00:46:19.533Z,17.15
2022-11-13T00:48:46.761Z,17.32
2022-11-13T00:51:13.699Z,17.31
2022-11-13T00:53:40.551Z,17.30
2022-11-13T00:56:07.663Z,17.30
2022-11-13T00:58:34.550Z,17.27
2022-11-13T01:01:11.940Z,17.26
2022-11-13T01:03:39.413Z,17.25
2022-11-13T01:06:12.227Z,17.25
2022-11-13T01:08:39.030Z,17.18
2022-11-13T01:11:14.358Z,17.21
2022-11-13T01:13:43.039Z,17.20
2022-11-13T01:16:12.111Z,17.13
2022-11-13T01:18:39.675Z,17.17
2022-11-13T01:21:12.190Z,17.17
2022-11-13T01:23:39.490Z,17.15
2022-11-13T01:26:30.508Z,17.14
2022-11-13T01:28:59.499Z,17.13
2022-11-13T01:31:30.200Z,17.12
2022-11-13T01:33:58.081Z,17.12
2022-11-13T01:36:28.137Z,17.12
2022-11-13T01:38:55.590Z,17.11
2022-11-13T01:41:40.529Z,17.10
2022-11-13T01:44:13.504Z,17.08
2022-11-13T01:46:47.320Z,17.08
2022-11-13T01:49:35.298Z,17.08
2022-11-13T01:52:07.061Z,17.07
2022-11-13T01:54:38.320Z,17.08
2022-11-13T01:57:06.143Z,17.00
2022-11-13T01:59:36.245Z,17.05
2022-11-13T02:02:03.580Z,17.03
2022-11-13T02:04:31.844Z,17.03
2022-11-13T02:07:02.685Z,17.02
2022-11-13T02:09:36.386Z,17.03
2022-11-13T02:12:06.177Z,17.02
2022-11-13T02:14:34.735Z,17.00
2022-11-13T02:17:06.380Z,17.00
2022-11-13T02:19:47.332Z,17.00
2022-11-13T02:22:21.913Z,16.97
2022-11-13T02:24:54.434Z,16.98
2022-11-13T02:27:30.764Z,16.98
2022-11-13T02:29:57.622Z,16.97
2022-11-13T02:32:24.489Z,16.98
2022-11-13T02:34:51.377Z,16.97
2022-11-13T02:37:18.768Z,16.96
2022-11-13T02:39:45.703Z,16.95
2022-11-13T02:42:12.510Z,16.95
2022-11-13T02:44:39.339Z,16.93
2022-11-13T02:47:06.179Z,16.94
2022-11-13T02:49:33.098Z,16.92
2022-11-13T02:51:59.918Z,16.93
2022-11-13T02:54:26.815Z,16.91
2022-11-13T02:56:53.633Z,16.92
2022-11-13T02:59:20.432Z,16.91
2022-11-13T03:01:48.283Z,16.90
2022-11-13T03:04:15.217Z,16.90
2022-11-13T03:06:42.173Z,16.91
2022-11-13T03:09:09.056Z,16.89
2022-11-13T03:11:35.913Z,16.89
2022-11-13T03:14:02.814Z,16.90
2022-11-13T03:16:29.648Z,16.89
2022-11-13T03:18:57.416Z,16.89
2022-11-13T03:21:24.644Z,16.89
2022-11-13T03:23:51.578Z,16.89
2022-11-13T03:26:18.554Z,16.89
2022-11-13T03:28:45.856Z,16.88
2022-11-13T03:31:12.864Z,16.82
2022-11-13T03:33:39.881Z,16.88
2022-11-13T03:36:06.941Z,16.89
2022-11-13T03:38:34.791Z,16.86
2022-11-13T03:41:01.702Z,16.86
2022-11-13T03:43:28.590Z,16.86
2022-11-13T03:45:55.470Z,16.87
2022-11-13T03:48:22.477Z,16.85
2022-11-13T03:50:53.058Z,16.86
2022-11-13T03:53:20.225Z,16.85
2022-11-13T03:55:47.682Z,16.86
2022-11-13T03:58:14.809Z,16.85
2022-11-13T04:00:42.573Z,16.83
2022-11-13T04:03:09.639Z,16.84
2022-11-13T04:05:36.837Z,16.84
2022-11-13T04:08:04.265Z,16.84
2022-11-13T04:10:31.616Z,16.85
2022-11-13T04:12:58.430Z,16.84
2022-11-13T04:15:25.500Z,16.84
2022-11-13T04:17:52.343Z,16.83
2022-11-13T04:20:19.329Z,16.83
2022-11-13T04:22:46.222Z,16.82
2022-11-13T04:25:13.070Z,16.81
2022-11-13T04:27:40.005Z,16.81
2022-11-13T04:30:07.554Z,16.81
2022-11-13T04:32:34.484Z,16.82
2022-11-13T04:35:01.285Z,16.81
2022-11-13T04:37:28.168Z,16.82
2022-11-13T04:39:55.096Z,16.80
2022-11-13T04:42:40.460Z,16.79
2022-11-13T04:45:07.785Z,16.79
2022-11-13T04:47:34.656Z,16.79
2022-11-13T04:50:01.551Z,16.79
2022-11-13T04:52:28.921Z,16.78
2022-11-13T04:54:56.040Z,16.78
2022-11-13T04:57:23.026Z,16.78
2022-11-13T04:59:49.919Z,16.76
2022-11-13T05:02:16.990Z,16.77
2022-11-13T05:04:43.822Z,16.77
2022-11-13T05:07:10.696Z,16.77
2022-11-13T05:09:37.560Z,16.76
2022-11-13T05:12:08.133Z,16.70
2022-11-13T05:14:39.401Z,16.74
2022-11-13T05:17:07.897Z,16.74
2022-11-13T05:19:35.009Z,16.74
2022-11-13T05:22:02.106Z,16.74
2022-11-13T05:24:29.332Z,16.74
2022-11-13T05:26:56.113Z,16.73
2022-11-13T05:29:23.041Z,16.74
2022-11-13T05:31:49.850Z,16.73
2022-11-13T05:34:16.705Z,16.72
2022-11-13T05:36:43.534Z,16.72
2022-11-13T05:39:10.456Z,16.71
2022-11-13T05:41:37.313Z,16.71
2022-11-13T05:44:04.380Z,16.71
2022-11-13T05:46:31.302Z,16.71
2022-11-13T05:49:00.179Z,16.71
2022-11-13T05:51:29.609Z,16.72
2022-11-13T05:53:57.214Z,16.72
2022-11-13T05:56:26.871Z,16.67
2022-11-13T05:58:54.964Z,16.70
2022-11-13T06:01:26.422Z,16.69
2022-11-13T06:03:54.903Z,16.70
2022-11-13T06:06:23.054Z,16.64
2022-11-13T06:08:51.366Z,16.69
2022-11-13T06:11:21.210Z,16.67
2022-11-13T06:13:49.342Z,16.67
2022-11-13T06:16:29.081Z,16.67
2022-11-13T06:18:57.913Z,16.65
2022-11-13T06:21:27.538Z,16.66
2022-11-13T06:23:54.890Z,16.59
2022-11-13T06:26:24.512Z,16.64
2022-11-13T06:28:52.108Z,16.63
2022-11-13T06:31:23.312Z,16.63
2022-11-13T06:33:50.484Z,16.63
2022-11-13T06:36:23.150Z,16.62
2022-11-13T06:38:50.829Z,16.61
2022-11-13T06:41:21.149Z,16.62
2022-11-13T06:43:48.158Z,16.61
2022-11-13T06:46:21.000Z,16.61
2022-11-13T06:48:48.200Z,16.60
2022-11-13T06:51:20.797Z,16.60
2022-11-13T06:53:48.412Z,16.59
2022-11-13T06:56:15.868Z,16.60
2022-11-13T06:58:44.015Z,16.59
2022-11-13T07:01:13.669Z,16.58
2022-11-13T07:03:41.166Z,16.59
2022-11-13T07:06:14.228Z,16.58
2022-11-13T07:08:42.595Z,16.58
2022-11-13T07:11:14.768Z,16.59
2022-11-13T07:13:42.386Z,16.63
2022-11-13T07:16:16.936Z,16.66
2022-11-13T07:18:49.496Z,16.69
2022-11-13T07:21:16.419Z,16.67
2022-11-13T07:23:43.833Z,16.65
2022-11-13T07:26:14.274Z,16.65
2022-11-13T07:28:41.215Z,16.67
2022-11-13T07:31:09.495Z,16.68
2022-11-13T07:33:36.416Z,16.69
2022-11-13T07:36:03.402Z,16.69
2022-11-13T07:38:30.739Z,16.70
2022-11-13T07:40:59.154Z,16.72
2022-11-13T07:43:26.608Z,16.73
2022-11-13T07:45:56.894Z,16.73
2022-11-13T07:48:24.572Z,16.75
2022-11-13T07:50:51.874Z,16.75
2022-11-13T07:53:20.132Z,16.75
2022-11-13T07:55:47.644Z,16.76
2022-11-13T07:58:14.593Z,16.75
2022-11-13T08:00:42.177Z,16.75
2022-11-13T08:03:13.317Z,16.77
2022-11-13T08:05:40.418Z,16.77
2022-11-13T08:08:08.131Z,16.78
2022-11-13T08:10:36.754Z,16.77
2022-11-13T08:13:06.274Z,16.78
2022-11-13T08:15:34.431Z,16.79
2022-11-13T08:18:04.185Z,16.79
2022-11-13T08:20:32.367Z,16.81
2022-11-13T08:23:03.786Z,16.80
2022-11-13T08:25:32.938Z,16.82
2022-11-13T08:28:00.261Z,16.83
2022-11-13T08:30:28.865Z,16.80
2022-11-13T08:32:56.029Z,16.85
2022-11-13T08:35:29.205Z,16.84
2022-11-13T08:38:05.557Z,16.84
2022-11-13T08:40:32.746Z,16.83
2022-11-13T08:43:03.992Z,16.86
2022-11-13T08:45:34.112Z,16.89
2022-11-13T08:48:05.248Z,16.89
2022-11-13T08:50:32.824Z,16.90
2022-11-13T08:53:01.632Z,16.87
2022-11-13T08:55:28.524Z,16.86
2022-11-13T08:58:00.345Z,16.90
2022-11-13T09:00:29.088Z,16.93
2022-11-13T09:02:57.402Z,16.88
2022-11-13T09:05:25.144Z,16.93
2022-11-13T09:07:55.739Z,16.92
2022-11-13T09:10:22.597Z,16.94
2022-11-13T09:12:49.408Z,16.93
2022-11-13T09:15:19.144Z,16.93
2022-11-13T09:17:50.127Z,16.94
2022-11-13T09:20:22.443Z,16.96
2022-11-13T09:22:49.963Z,16.97
2022-11-13T09:25:16.907Z,17.00
2022-11-13T09:27:43.780Z,17.04
2022-11-13T09:30:11.171Z,17.05
2022-11-13T09:32:38.037Z,17.06
2022-11-13T09:35:05.301Z,17.08
2022-11-13T09:37:32.956Z,17.10
2022-11-13T09:39:59.879Z,17.11
2022-11-13T09:42:30.443Z,17.14
2022-11-13T09:45:08.318Z,17.17
2022-11-13T09:47:42.304Z,17.19
2022-11-13T09:50:29.976Z,17.20
2022-11-13T09:52:57.535Z,17.22
2022-11-13T09:55:32.827Z,17.24
2022-11-13T09:58:46.026Z,17.26
2022-11-13T10:01:21.895Z,17.28
2022-11-13T10:04:02.532Z,17.28
2022-11-13T10:06:43.000Z,17.29
2022-11-13T10:09:45.383Z,17.25
2022-11-13T10:12:14.242Z,17.32
2022-11-13T10:14:46.441Z,17.32
2022-11-13T10:17:40.188Z,17.20
2022-11-13T10:20:19.479Z,17.32
2022-11-13T10:22:55.233Z,17.35
2022-11-13T10:25:25.520Z,17.38
2022-11-13T10:28:04.574Z,17.40
2022-11-13T10:30:42.996Z,17.35
2022-11-13T10:33:15.315Z,17.42
2022-11-13T10:35:59.267Z,17.43
2022-11-13T10:38:48.474Z,17.43
2022-11-13T10:41:18.459Z,17.34
2022-11-13T10:43:51.244Z,17.32
2022-11-13T10:46:24.867Z,17.33
2022-11-13T10:48:52.495Z,17.31
2022-11-13T10:51:24.849Z,17.29
2022-11-13T10:53:53.115Z,17.30
2022-11-13T10:56:34.832Z,17.34
2022-11-13T10:59:13.641Z,17.34
2022-11-13T11:01:42.334Z,17.33
2022-11-13T11:04:35.426Z,17.29
2022-11-13T11:07:21.421Z,17.26
2022-11-13T11:09:51.201Z,17.23
2022-11-13T11:12:24.267Z,17.22
2022-11-13T11:14:57.670Z,17.20
2022-11-13T11:17:39.473Z,17.18
2022-11-13T11:20:47.442Z,17.16
2022-11-13T11:23:20.075Z,17.14
2022-11-13T11:25:57.550Z,17.15
2022-11-13T11:28:38.642Z,17.13
2022-11-13T11:31:31.200Z,17.14
2022-11-13T11:34:29.182Z,17.14
2022-11-13T11:37:12.826Z,17.15
2022-11-13T11:40:01.365Z,17.16
2022-11-13T11:42:41.983Z,17.18
2022-11-13T11:45:39.064Z,17.21
2022-11-13T11:48:17.595Z,17.22
2022-11-13T11:51:02.248Z,17.19
2022-11-13T11:53:32.077Z,17.24
2022-11-13T11:56:02.620Z,17.29
2022-11-13T11:58:59.629Z,17.32
2022-11-13T12:01:45.288Z,17.33
2022-11-13T12:04:50.115Z,17.36
2022-11-13T12:10:29.053Z,17.48
2022-11-13T12:13:31.899Z,17.57
2022-11-13T12:16:02.400Z,17.63
2022-11-13T12:18:41.092Z,17.64
2022-11-13T12:21:33.181Z,17.63
2022-11-13T12:24:22.555Z,17.68
2022-11-13T12:27:32.956Z,17.72
2022-11-13T12:30:17.137Z,17.65
2022-11-13T12:32:55.461Z,17.71
2022-11-13T12:35:25.506Z,17.75
2022-11-13T12:38:03.298Z,17.73
2022-11-13T12:41:05.706Z,17.70
2022-11-13T12:43:54.113Z,17.71
2022-11-13T12:46:22.253Z,17.68
2022-11-13T12:48:49.145Z,17.70
2022-11-13T12:51:18.515Z,17.74
2022-11-13T12:53:48.190Z,17.77
2022-11-13T12:56:32.061Z,17.77
2022-11-13T12:59:29.109Z,17.81
2022-11-13T13:02:02.353Z,17.86
2022-11-13T13:04:54.951Z,17.87
2022-11-13T13:07:31.058Z,17.85
2022-11-13T13:10:13.059Z,17.93
2022-11-13T13:13:03.878Z,17.95
2022-11-13T13:15:43.874Z,17.95
2022-11-13T13:18:12.927Z,17.98
2022-11-13T13:20:42.163Z,17.98
2022-11-13T13:23:13.043Z,18.00
2022-11-13T13:25:40.645Z,18.01
2022-11-13T13:28:11.022Z,18.04
2022-11-13T13:31:13.753Z,18.04
2022-11-13T13:33:49.706Z,18.04
2022-11-13T13:36:34.929Z,18.06
2022-11-13T13:39:17.181Z,18.08
2022-11-13T13:42:02.202Z,18.03
2022-11-13T13:44:55.871Z,18.09
2022-11-13T13:47:31.182Z,18.08
2022-11-13T13:49:58.649Z,18.06
2022-11-13T13:52:31.859Z,18.08
2022-11-13T13:55:01.744Z,18.07
2022-11-13T13:57:30.861Z,18.07
2022-11-13T13:59:58.399Z,18.05
2022-11-13T14:02:25.524Z,18.05
2022-11-13T14:04:55.218Z,18.04
2022-11-13T14:07:31.019Z,18.04
2022-11-13T14:10:14.267Z,18.01
2022-11-13T14:12:44.193Z,18.02
2022-11-13T14:15:29.571Z,18.01
2022-11-13T14:18:05.896Z,18.01
2022-11-13T14:20:52.940Z,17.98
2022-11-13T14:23:35.159Z,17.97
2022-11-13T14:26:04.128Z,17.98
2022-11-13T14:28:52.296Z,17.99
2022-11-13T14:31:24.005Z,18.02
2022-11-13T14:33:53.966Z,18.07
2022-11-13T14:36:30.265Z,18.10
2022-11-13T14:38:58.333Z,18.13
2022-11-13T14:41:34.986Z,18.09
2022-11-13T14:44:02.811Z,18.18
2022-11-13T14:46:31.960Z,18.19
2022-11-13T14:48:59.564Z,18.21
2022-11-13T14:51:29.578Z,18.24
2022-11-13T14:54:08.816Z,18.27
2022-11-13T14:56:39.115Z,18.28
2022-11-13T14:59:19.837Z,18.32
2022-11-13T15:02:00.189Z,18.27
2022-11-13T15:04:28.655Z,18.35
2022-11-13T15:07:00.808Z,18.35
2022-11-13T15:09:30.153Z,18.38
2022-11-13T15:11:59.030Z,18.39
2022-11-13T15:14:28.311Z,18.40
2022-11-13T15:16:57.931Z,18.37
2022-11-13T15:19:38.282Z,18.43
2022-11-13T15:22:28.376Z,18.44
2022-11-13T15:24:55.732Z,18.43
2022-11-13T15:27:22.707Z,18.48
2022-11-13T15:29:49.977Z,18.52
2022-11-13T15:32:18.263Z,18.58
2022-11-13T15:34:45.802Z,18.61
2022-11-13T15:37:15.534Z,18.64
2022-11-13T15:39:43.050Z,18.69
2022-11-13T15:42:19.343Z,18.73
2022-11-13T15:44:47.533Z,18.73
2022-11-13T15:47:36.034Z,18.83
2022-11-13T15:50:14.305Z,18.85
2022-11-13T15:52:49.859Z,18.87
2022-11-13T15:55:30.191Z,18.67
2022-11-13T15:57:58.649Z,18.79
2022-11-13T16:00:28.669Z,18.79
2022-11-13T16:02:58.298Z,18.82
2022-11-13T16:05:29.650Z,18.74
2022-11-13T16:07:58.776Z,18.68
2022-11-13T16:10:26.904Z,18.57
2022-11-13T16:12:54.855Z,18.51
2022-11-13T16:15:23.201Z,18.52
2022-11-13T16:17:56.020Z,18.49
2022-11-13T16:20:23.236Z,18.46
2022-11-13T16:22:50.942Z,18.45
2022-11-13T16:25:20.220Z,18.43
2022-11-13T16:27:48.057Z,18.43
2022-11-13T16:30:20.719Z,18.46
2022-11-13T16:32:48.279Z,18.48
2022-11-13T16:35:20.543Z,18.49
2022-11-13T16:37:47.636Z,18.50
2022-11-13T16:40:22.115Z,18.52
2022-11-13T16:42:49.462Z,18.54
2022-11-13T16:45:16.609Z,18.52
2022-11-13T16:47:44.052Z,18.62
2022-11-13T16:50:20.925Z,18.66
2022-11-13T16:52:48.822Z,18.70
2022-11-13T16:55:15.884Z,18.75
2022-11-13T16:57:43.189Z,18.81
2022-11-13T17:00:14.651Z,18.82
2022-11-13T17:02:41.780Z,18.82
2022-11-13T17:05:14.170Z,18.81
2022-11-13T17:07:41.866Z,18.89
2022-11-13T17:10:36.104Z,18.93
2022-11-13T17:13:03.543Z,18.93
2022-11-13T17:15:31.989Z,18.96
2022-11-13T17:18:00.187Z,18.98
2022-11-13T17:20:27.442Z,19.01
2022-11-13T17:22:56.412Z,19.01
2022-11-13T17:25:27.835Z,19.02
2022-11-13T17:27:54.838Z,19.02
2022-11-13T17:30:22.232Z,19.03
2022-11-13T17:32:49.232Z,19.05
2022-11-13T17:35:16.511Z,19.01
2022-11-13T17:37:43.505Z,19.10
2022-11-13T17:40:12.094Z,19.08
2022-11-13T17:42:39.181Z,19.06
2022-11-13T17:45:06.884Z,19.05
2022-11-13T17:47:34.817Z,19.05
2022-11-13T17:50:07.077Z,19.06
2022-11-13T17:52:34.939Z,19.05
2022-11-13T17:55:02.865Z,19.06
2022-11-13T17:57:31.635Z,19.08
2022-11-13T17:59:58.691Z,19.08
2022-11-13T18:02:25.876Z,19.08
2022-11-13T18:04:54.544Z,19.08
2022-11-13T18:07:21.492Z,19.05
2022-11-13T18:09:48.460Z,19.05
2022-11-13T18:12:16.577Z,18.96
2022-11-13T18:14:43.557Z,19.00
2022-11-13T18:17:10.415Z,18.98
2022-11-13T18:19:37.391Z,19.04
2022-11-13T18:22:04.511Z,19.06
2022-11-13T18:24:31.643Z,19.03
2022-11-13T18:26:58.676Z,19.04
2022-11-13T18:29:25.727Z,19.03
2022-11-13T18:31:52.825Z,19.05
2022-11-13T18:34:19.756Z,19.02
2022-11-13T18:36:47.105Z,19.04
2022-11-13T18:39:16.827Z,19.06
2022-11-13T18:41:44.727Z,19.08
2022-11-13T18:44:12.780Z,19.10
2022-11-13T18:46:44.210Z,19.09
2022-11-13T18:49:12.343Z,19.09
2022-11-13T18:51:39.545Z,19.08
2022-11-13T18:54:10.569Z,19.03
2022-11-13T18:56:42.229Z,19.06
2022-11-13T18:59:10.746Z,19.08
2022-11-13T19:01:40.346Z,19.06
2022-11-13T19:04:25.652Z,19.04
2022-11-13T19:06:53.227Z,19.03
2022-11-13T19:09:21.341Z,19.07
2022-11-13T19:11:49.614Z,19.09
2022-11-13T19:14:19.595Z,19.07
2022-11-13T19:16:48.514Z,19.06
2022-11-13T19:19:22.224Z,19.04
2022-11-13T19:21:51.475Z,18.95
2022-11-13T19:24:19.477Z,18.92
2022-11-13T19:26:46.882Z,18.89
2022-11-13T19:29:16.664Z,18.87
2022-11-13T19:31:45.969Z,18.80
2022-11-13T19:34:15.441Z,18.85
2022-11-13T19:36:45.542Z,18.81
2022-11-13T19:39:12.980Z,18.80
2022-11-13T19:41:40.296Z,18.82
2022-11-13T19:44:09.972Z,18.81
2022-11-13T19:46:37.073Z,18.80
2022-11-13T19:49:04.885Z,18.77
2022-11-13T19:51:33.669Z,18.73
2022-11-13T19:54:00.905Z,18.73
2022-11-13T19:56:29.400Z,18.74
2022-11-13T19:58:58.837Z,18.75
2022-11-13T20:01:29.660Z,18.77
2022-11-13T20:04:02.684Z,18.76
2022-11-13T20:06:32.446Z,18.75
2022-11-13T20:09:01.204Z,18.74
2022-11-13T20:11:28.874Z,18.70
2022-11-13T20:13:58.353Z,18.73
2022-11-13T20:16:26.439Z,18.68
2022-11-13T20:18:58.903Z,18.74
2022-11-13T20:21:30.998Z,18.77
2022-11-13T20:24:02.948Z,18.77
2022-11-13T20:26:33.585Z,18.77
2022-11-13T20:29:05.552Z,18.81
2022-11-13T20:31:33.349Z,18.79
2022-11-13T20:34:06.525Z,18.79
2022-11-13T20:36:33.923Z,18.79
2022-11-13T20:39:05.498Z,18.80
2022-11-13T20:41:38.601Z,18.77
2022-11-13T20:44:06.906Z,18.76
2022-11-13T20:46:34.058Z,18.75
2022-11-13T20:49:04.342Z,18.75
2022-11-13T20:51:38.787Z,18.77
2022-11-13T20:54:07.670Z,18.70
2022-11-13T20:56:37.459Z,18.77
2022-11-13T20:59:06.033Z,18.76
2022-11-13T21:01:35.548Z,18.76
2022-11-13T21:04:03.140Z,18.72
2022-11-13T21:06:31.034Z,18.74
2022-11-13T21:08:58.628Z,18.76
2022-11-13T21:11:26.909Z,18.74
2022-11-13T21:13:57.377Z,18.75
2022-11-13T21:16:25.274Z,18.81
2022-11-13T21:18:52.596Z,18.84
2022-11-13T21:21:22.072Z,18.84
2022-11-13T21:23:52.915Z,18.81
2022-11-13T21:26:21.161Z,18.79
2022-11-13T21:28:48.835Z,18.80
2022-11-13T21:31:21.409Z,18.77
2022-11-13T21:33:49.645Z,18.77
2022-11-13T21:36:22.943Z,18.77
2022-11-13T21:38:55.760Z,18.72
2022-11-13T21:41:28.084Z,18.76
2022-11-13T21:44:05.237Z,18.75
2022-11-13T21:46:35.801Z,18.74
2022-11-13T21:49:04.842Z,18.76
2022-11-13T21:51:34.816Z,18.74
2022-11-13T21:54:02.963Z,18.69
2022-11-13T21:56:33.087Z,18.60
2022-11-13T21:59:00.923Z,18.51
2022-11-13T22:01:32.394Z,18.44
2022-11-13T22:04:04.113Z,18.34
2022-11-13T22:06:36.675Z,18.34
2022-11-13T22:09:07.462Z,18.28
2022-11-13T22:11:37.513Z,18.26
2022-11-13T22:14:08.276Z,18.20
2022-11-13T22:16:37.733Z,18.17
2022-11-13T22:19:07.645Z,18.12
2022-11-13T22:21:36.685Z,18.09
2022-11-13T22:24:04.504Z,18.05
2022-11-13T22:26:32.333Z,18.02
2022-11-13T22:29:00.558Z,17.94
2022-11-13T22:31:30.525Z,17.95
2022-11-13T22:33:59.285Z,17.93
2022-11-13T22:36:28.870Z,17.90
2022-11-13T22:38:56.742Z,17.86
2022-11-13T22:41:29.996Z,17.84
2022-11-13T22:44:05.941Z,17.80
2022-11-13T22:46:34.894Z,17.78
2022-11-13T22:49:03.988Z,17.77
2022-11-13T22:51:35.428Z,17.67
2022-11-13T22:54:05.320Z,17.70
2022-11-13T22:56:33.981Z,17.69
2022-11-13T22:59:02.511Z,17.66
2022-11-13T23:01:32.236Z,17.64
2022-11-13T23:04:02.479Z,17.62
2022-11-13T23:06:32.145Z,17.59
2022-11-13T23:09:00.641Z,17.59
2022-11-13T23:11:39.176Z,17.56
2022-11-13T23:14:10.252Z,17.53
2022-11-13T23:16:37.431Z,17.52
2022-11-13T23:19:05.001Z,17.50
2022-11-13T23:21:32.264Z,17.48
2022-11-13T23:23:59.432Z,17.46
2022-11-13T23:26:27.310Z,17.46
2022-11-13T23:28:54.503Z,17.42
2022-11-13T23:31:21.971Z,17.39
2022-11-13T23:33:49.293Z,17.39
2022-11-13T23:36:18.368Z,17.38
2022-11-13T23:38:45.694Z,17.35
2022-11-13T23:41:13.217Z,17.34
2022-11-13T23:46:27.114Z,17.31
2022-11-13T23:48:53.946Z,17.28
2022-11-13T23:51:20.800Z,17.27
2022-11-13T23:53:47.743Z,17.25
2022-11-13T23:56:14.761Z,17.25
2022-11-13T23:58:41.613Z,17.23
